MGGT/GUA METAR and TAF weather

Enter ICAO airport designator
Station Type Date Time Source
MGGT METAR 2019/06/18 12:00 UTC NOAA

MGGT 181200Z 03010KT 8000 SCT010 BKN012 19/17 Q1025 A3027 BR


Station Type Date Time Source
MGGT Decoded METAR 2019/06/18 12:00 UTC NOAA

Guatemala Aeropuertola Aurora , Guatemala (MGGT) 14-35N 090-31W 1489M
Jun 18, 2019 - 08:00 AM EDT / 2019.06.18 1200 UTC
Wind: from the NNE (030 degrees) at 12 MPH (10 KT):0
Visibility: 4 mile(s):0
Sky conditions: mostly cloudy
Temperature: 66 F (19 C)
Dew Point: 62 F (17 C)
Relative Humidity: 88%
Pressure (altimeter): 30.27 in. Hg (1025 hPa)
ob: MGGT 181200Z 03010KT 8000 SCT010 BKN012 19/17 Q1025 A3027 BR
cycle: 12

Station Type Date Time Source
MGGT TAF 2019/06/18 12:39 UTC NOAA

TAF TAF MGGT 181100Z 1812/1912 02010KT 9999 BKN014 TX26/1820Z TN17/1812Z
BECMG 1815/1817 SCT018
TEMPO 1819/1824 18008KT SCT020TCU
BECMG 1902/1904 36010KT FEW014
TEMPO 1906/1908 SCT014

Example: see airport list